Andrews, North Carolina
Current Conditions -  °F | °C
As of 10:55 PM on Thursday 27 Nov 2014 (Local Time) from KRHP Reporting Station
Overcast Overcast  
Wind Chill: 31°   Ceiling: 2800
Heat Index: 31°   Visibility: 10mi
Dew Point: 22°   Wind: 3mph
Humidity: 69%   Direction: 30°NNE
Pressure: 30.33"   Gusts: NA
Location:  35.2°N, 83.82°W
Report Text: KRHP 280355Z AUTO 03003KT 10SM OVC028 M01/M06 A3033 RMK AO2 T10061056
Loading
Personal Weather Stations






























Interactive Weather Map New forecast layout! Learn more

10-Day Weather Forecast

Advertisements
Track Severe Weather on mobile